Time;durP1;ratioP1;P1;durP2;ratioP2;P2;SDS_P1;SDS_P2;PMS_P1;PMS_P2;Temp;Humidity;BMP_temperature;BMP_pressure;BME280_temperature;BME280_humidity;BME280_pressure;Samples;Min_cycle;Max_cycle;Signal;HPM_P1;HPM_P2
2023/05/15 00:02:08;;;;;;;6.78;5.63;;;16.60;99.90;;;;;;5093705;28;20195;-79
2023/05/15 00:04:39;;;;;;;9.75;5.82;;;16.70;99.90;;;;;;5093935;28;20572;-77
2023/05/15 00:07:11;;;;;;;7.90;5.40;;;16.70;99.90;;;;;;5093414;28;20200;-76
2023/05/15 00:09:42;;;;;;;7.20;5.43;;;16.80;99.90;;;;;;5098510;28;20561;-77
2023/05/15 00:12:16;;;;;;;6.68;5.40;;;16.80;99.90;;;;;;5113587;28;20225;-77
2023/05/15 00:14:47;;;;;;;13.77;5.40;;;16.80;99.90;;;;;;5113879;28;20198;-77
2023/05/15 00:17:18;;;;;;;5.60;4.57;;;16.90;99.90;;;;;;5113765;28;20661;-77
2023/05/15 00:19:49;;;;;;;7.22;5.35;;;16.90;99.90;;;;;;5113551;28;20205;-77
2023/05/15 00:22:20;;;;;;;7.75;4.68;;;17.00;99.90;;;;;;5113564;28;20230;-77
2023/05/15 00:24:51;;;;;;;8.20;5.30;;;17.10;99.90;;;;;;5113637;28;20653;-77
2023/05/15 00:27:25;;;;;;;7.82;5.00;;;17.20;99.90;;;;;;5093891;28;20195;-77
2023/05/15 00:29:56;;;;;;;6.70;4.78;;;17.40;99.90;;;;;;5093132;28;20215;-77
2023/05/15 00:32:27;;;;;;;7.22;4.88;;;17.50;99.90;;;;;;5092634;28;20191;-77
2023/05/15 00:34:58;;;;;;;8.35;5.20;;;17.50;99.90;;;;;;5093080;28;20198;-77
2023/05/15 00:37:29;;;;;;;7.97;5.15;;;17.50;99.90;;;;;;5093039;28;20646;-76
2023/05/15 00:40:00;;;;;;;5.93;4.20;;;17.60;99.90;;;;;;5092710;28;20195;-77
2023/05/15 00:42:35;;;;;;;7.05;4.03;;;17.60;99.90;;;;;;5092890;28;20222;-78
2023/05/15 00:45:07;;;;;;;7.95;3.85;;;17.70;99.90;;;;;;5093632;28;20199;-77
2023/05/15 00:47:42;;;;;;;4.80;3.40;;;17.70;99.90;;;;;;5093044;28;20196;-78
2023/05/15 00:50:13;;;;;;;4.90;3.45;;;17.90;99.90;;;;;;5092718;28;20207;-77
2023/05/15 00:52:46;;;;;;;6.43;3.42;;;18.00;99.90;;;;;;5092539;28;20282;-77
2023/05/15 00:55:17;;;;;;;3.92;3.25;;;18.20;99.90;;;;;;5092609;28;20198;-77
2023/05/15 00:57:51;;;;;;;5.03;3.00;;;18.30;99.90;;;;;;5092393;28;20681;-76
2023/05/15 01:00:22;;;;;;;4.80;2.58;;;18.40;99.90;;;;;;5093189;28;20219;-77
2023/05/15 01:02:54;;;;;;;4.53;2.90;;;18.50;99.90;;;;;;5092153;28;20195;-77
2023/05/15 01:05:25;;;;;;;5.38;2.72;;;18.60;99.90;;;;;;5092304;28;20199;-75
2023/05/15 01:08:03;;;;;;;3.85;2.53;;;18.80;99.90;;;;;;5092255;28;20561;-77
2023/05/15 01:10:34;;;;;;;5.30;2.75;;;19.00;99.90;;;;;;5092136;28;20217;-76
2023/05/15 01:13:08;;;;;;;4.93;2.47;;;19.10;99.90;;;;;;5091357;28;20669;-77
2023/05/15 01:15:40;;;;;;;3.75;2.20;;;19.20;99.90;;;;;;5092517;28;20206;-78
2023/05/15 01:18:11;;;;;;;4.43;2.00;;;19.30;99.90;;;;;;5092634;28;20203;-79
2023/05/15 01:21:08;;;;;;;3.72;2.13;;;19.30;99.90;;;;;;5091649;28;20727;-78
2023/05/15 01:23:54;;;;;;;3.15;1.60;;;19.40;99.90;;;;;;5092091;28;20198;-78
2023/05/15 01:26:50;;;;;;;3.15;1.75;;;19.40;99.90;;;;;;5091941;28;20195;-78
2023/05/15 01:29:29;;;;;;;3.00;1.80;;;19.50;99.90;;;;;;5092010;28;20576;-78
2023/05/15 01:32:04;;;;;;;4.05;1.80;;;19.50;99.90;;;;;;5095841;28;20623;-78
2023/05/15 01:34:44;;;;;;;3.15;1.70;;;19.50;99.90;;;;;;5093181;28;20650;-78
2023/05/15 01:37:19;;;;;;;4.95;1.65;;;19.50;99.90;;;;;;5094237;28;20195;-78
2023/05/15 01:39:55;;;;;;;7.07;1.80;;;19.60;99.90;;;;;;5099472;28;20194;-78
2023/05/15 01:42:32;;;;;;;4.95;2.42;;;19.70;99.90;;;;;;5098267;28;20226;-79
2023/05/15 01:45:07;;;;;;;3.05;1.95;;;19.60;99.90;;;;;;5098854;28;20205;-78
2023/05/15 01:47:43;;;;;;;5.25;1.95;;;19.60;99.90;;;;;;5098296;28;20202;-77
2023/05/15 01:50:16;;;;;;;2.75;1.90;;;19.60;99.90;;;;;;5100204;28;20413;-77
2023/05/15 01:52:51;;;;;;;4.35;1.73;;;19.70;99.90;;;;;;5098596;28;20570;-77
2023/05/15 01:55:24;;;;;;;5.28;1.67;;;19.70;99.90;;;;;;5098655;28;20191;-78
2023/05/15 01:57:56;;;;;;;4.00;1.80;;;19.70;99.90;;;;;;5097625;28;20674;-78
2023/05/15 02:00:30;;;;;;;3.08;1.63;;;19.80;99.90;;;;;;5097678;28;20289;-78
2023/05/15 02:03:02;;;;;;;6.93;1.75;;;19.80;99.90;;;;;;5097222;28;20203;-78
2023/05/15 02:05:34;;;;;;;4.30;1.67;;;19.90;99.90;;;;;;5092743;28;20199;-78
2023/05/15 02:08:06;;;;;;;2.22;1.30;;;19.80;99.90;;;;;;5093283;28;20211;-78
2023/05/15 02:10:37;;;;;;;3.35;1.38;;;19.90;99.90;;;;;;5073307;28;20204;-78
2023/05/15 02:13:10;;;;;;;4.03;1.35;;;19.90;99.90;;;;;;5073154;28;20192;-78
2023/05/15 02:15:43;;;;;;;2.53;1.40;;;20.00;99.90;;;;;;5072439;28;20207;-78
2023/05/15 02:18:15;;;;;;;3.05;1.40;;;20.00;99.90;;;;;;5071996;28;20196;-78
2023/05/15 02:20:46;;;;;;;3.45;1.45;;;20.00;99.90;;;;;;5072128;28;20702;-79
2023/05/15 02:23:19;;;;;;;2.70;1.35;;;20.00;99.90;;;;;;5071622;28;20220;-77
2023/05/15 02:26:01;;;;;;;4.35;1.20;;;20.10;99.90;;;;;;5079106;28;20203;-78
2023/05/15 02:28:41;;;;;;;4.70;1.73;;;20.10;99.90;;;;;;5091460;28;20568;-77
2023/05/15 02:31:21;;;;;;;3.63;1.27;;;20.00;99.90;;;;;;5091788;28;20223;-78
2023/05/15 02:33:58;;;;;;;3.05;1.27;;;20.10;99.90;;;;;;5091612;28;20199;-78
2023/05/15 02:36:35;;;;;;;2.05;1.23;;;20.10;99.90;;;;;;5091975;28;20217;-78
2023/05/15 02:39:06;;;;;;;2.85;1.25;;;20.20;99.90;;;;;;5092301;28;20202;-77
2023/05/15 02:41:40;;;;;;;6.45;1.40;;;20.20;99.90;;;;;;5092755;28;20604;-78
2023/05/15 02:44:12;;;;;;;3.70;1.30;;;20.20;99.90;;;;;;5094248;28;20228;-78
2023/05/15 02:46:46;;;;;;;3.10;1.20;;;20.20;99.90;;;;;;5094298;28;20685;-78
2023/05/15 02:49:17;;;;;;;1.48;1.10;;;20.30;99.90;;;;;;5093012;28;20201;-78
2023/05/15 02:51:49;;;;;;;5.22;1.20;;;20.20;99.90;;;;;;5092654;28;20195;-77
2023/05/15 02:54:21;;;;;;;3.58;1.30;;;20.20;99.90;;;;;;5091540;28;20292;-79
2023/05/15 02:56:52;;;;;;;2.83;1.45;;;20.30;99.90;;;;;;5091810;28;20195;-76
2023/05/15 02:59:23;;;;;;;4.53;1.25;;;20.50;99.90;;;;;;5092320;28;20241;-77
2023/05/15 03:01:57;;;;;;;3.05;1.17;;;20.70;99.90;;;;;;5095687;28;20219;-77
2023/05/15 03:04:31;;;;;;;2.80;0.90;;;20.70;99.90;;;;;;5098975;28;20195;-78
2023/05/15 03:07:02;;;;;;;2.13;1.00;;;20.70;99.90;;;;;;5097126;28;20199;-77
2023/05/15 03:09:34;;;;;;;1.95;1.10;;;20.80;99.90;;;;;;5097242;28;20287;-76
2023/05/15 03:12:05;;;;;;;2.38;1.10;;;20.80;99.90;;;;;;5097281;28;20195;-77
2023/05/15 03:14:37;;;;;;;2.58;1.23;;;21.00;99.90;;;;;;5097318;28;20681;-78
2023/05/15 03:17:10;;;;;;;2.95;1.02;;;21.00;99.90;;;;;;5098676;28;20282;-77
2023/05/15 03:19:41;;;;;;;1.98;0.90;;;21.00;99.90;;;;;;5096439;28;20264;-78
2023/05/15 03:22:12;;;;;;;1.58;1.00;;;21.10;99.90;;;;;;5098984;28;20231;-78
2023/05/15 03:24:43;;;;;;;2.63;1.20;;;21.30;99.90;;;;;;5097278;28;20200;-78
2023/05/15 03:27:14;;;;;;;3.08;1.20;;;21.40;99.90;;;;;;5101298;28;20203;-78
2023/05/15 03:29:47;;;;;;;2.28;1.00;;;21.40;99.90;;;;;;5100203;28;20238;-78
2023/05/15 03:32:21;;;;;;;2.10;0.90;;;21.60;99.90;;;;;;5103904;28;20286;-77
2023/05/15 03:34:52;;;;;;;4.13;1.40;;;21.70;99.90;;;;;;5097587;28;20492;-76
2023/05/15 03:37:25;;;;;;;1.92;0.75;;;21.80;99.90;;;;;;5103257;28;20199;-78
2023/05/15 03:39:57;;;;;;;2.30;0.68;;;21.80;99.90;;;;;;5099146;28;20191;-78
2023/05/15 03:42:28;;;;;;;1.95;0.60;;;21.90;99.90;;;;;;5095667;28;20597;-78
2023/05/15 03:45:12;;;;;;;2.00;0.30;;;21.90;99.90;;;;;;5095246;28;20195;-78
2023/05/15 03:47:47;;;;;;;3.42;0.47;;;21.80;99.90;;;;;;5097172;28;20669;-79
2023/05/15 03:50:19;;;;;;;1.80;0.55;;;21.60;99.90;;;;;;5097192;28;20199;-76
2023/05/15 03:52:54;;;;;;;5.22;0.52;;;21.60;99.90;;;;;;5119026;28;20218;-77
2023/05/15 03:55:26;;;;;;;4.95;0.80;;;21.60;99.90;;;;;;5100143;28;20205;-77
2023/05/15 03:57:58;;;;;;;2.22;0.50;;;21.50;99.90;;;;;;5117831;28;20195;-77
2023/05/15 04:00:29;;;;;;;4.53;0.52;;;21.40;99.90;;;;;;5117960;28;20205;-77
2023/05/15 04:03:02;;;;;;;0.77;0.20;;;21.40;99.90;;;;;;5113692;28;20219;-78
2023/05/15 04:05:33;;;;;;;2.00;0.45;;;21.50;99.90;;;;;;5099455;28;20536;-78
2023/05/15 04:08:04;;;;;;;1.83;0.40;;;21.50;99.90;;;;;;5103630;28;20221;-77
2023/05/15 04:10:39;;;;;;;3.75;0.40;;;21.40;99.90;;;;;;5099257;28;20203;-77
2023/05/15 04:13:11;;;;;;;2.08;0.40;;;21.40;99.90;;;;;;5102431;28;20196;-77
2023/05/15 04:15:43;;;;;;;3.25;0.68;;;21.30;99.90;;;;;;5100653;28;20206;-78
2023/05/15 04:18:16;;;;;;;2.58;0.50;;;21.30;99.90;;;;;;5097837;28;20202;-76
2023/05/15 04:20:47;;;;;;;3.97;0.50;;;21.20;99.90;;;;;;5094756;28;20227;-76
2023/05/15 04:23:19;;;;;;;3.17;0.50;;;21.10;99.90;;;;;;5094368;28;20348;-77
2023/05/15 04:25:52;;;;;;;2.42;0.50;;;21.10;99.90;;;;;;5109220;28;20209;-76
2023/05/15 04:28:23;;;;;;;2.95;0.50;;;21.10;99.90;;;;;;5116074;28;20293;-76
2023/05/15 04:30:54;;;;;;;0.63;0.40;;;21.00;99.90;;;;;;5116647;28;20542;-76
2023/05/15 04:33:27;;;;;;;1.38;0.45;;;21.00;99.90;;;;;;5104258;28;20198;-77
2023/05/15 04:35:59;;;;;;;2.90;0.80;;;20.90;99.90;;;;;;5098327;28;20208;-76
2023/05/15 04:38:30;;;;;;;2.85;0.77;;;20.80;99.90;;;;;;5095092;28;20200;-77
2023/05/15 04:41:01;;;;;;;2.15;0.82;;;20.70;99.90;;;;;;5096078;28;20203;-77
2023/05/15 04:43:32;;;;;;;0.77;0.32;;;20.70;99.90;;;;;;5086762;28;20286;-77
2023/05/15 04:46:03;;;;;;;0.82;0.20;;;20.60;99.90;;;;;;5094761;28;20218;-77
2023/05/15 04:48:36;;;;;;;1.58;0.50;;;20.70;99.90;;;;;;5094613;28;20875;-77
2023/05/15 04:51:08;;;;;;;1.98;0.40;;;20.60;99.90;;;;;;5097221;28;20206;-77
2023/05/15 04:53:39;;;;;;;1.27;0.32;;;20.60;99.90;;;;;;5093151;28;20199;-76
2023/05/15 04:56:11;;;;;;;0.60;0.30;;;20.50;99.90;;;;;;5094613;28;20195;-77
2023/05/15 04:58:42;;;;;;;0.80;0.30;;;20.50;99.90;;;;;;5100604;28;20573;-77
2023/05/15 05:01:15;;;;;;;1.15;0.30;;;20.40;99.90;;;;;;5115313;28;20197;-77
2023/05/15 05:03:48;;;;;;;0.98;0.30;;;20.30;99.90;;;;;;5116403;28;20200;-76
2023/05/15 05:06:19;;;;;;;0.85;0.32;;;20.30;99.90;;;;;;5095142;28;20305;-76
2023/05/15 05:08:53;;;;;;;1.23;0.30;;;20.40;99.90;;;;;;5093362;28;20201;-76
2023/05/15 05:11:24;;;;;;;1.80;0.50;;;20.20;99.90;;;;;;5095482;28;20196;-79
2023/05/15 05:13:55;;;;;;;0.80;0.40;;;20.30;99.90;;;;;;5093732;28;20199;-77
2023/05/15 05:16:26;;;;;;;2.30;0.30;;;20.30;99.90;;;;;;5093595;28;20210;-76
2023/05/15 05:19:00;;;;;;;1.45;0.50;;;20.30;99.90;;;;;;5093650;28;20199;-76
2023/05/15 05:21:31;;;;;;;1.77;0.38;;;20.40;99.90;;;;;;5092053;28;20590;-76
2023/05/15 05:24:02;;;;;;;0.80;0.30;;;20.40;99.90;;;;;;5092568;28;20565;-77
2023/05/15 05:26:33;;;;;;;1.42;0.30;;;20.40;99.90;;;;;;5092286;28;20203;-76
2023/05/15 05:29:04;;;;;;;0.88;0.30;;;20.40;99.90;;;;;;5092336;28;20601;-77
2023/05/15 05:31:35;;;;;;;1.13;0.35;;;20.40;99.90;;;;;;5092189;28;20210;-76
2023/05/15 05:34:08;;;;;;;1.90;0.52;;;20.30;99.90;;;;;;5092503;28;20196;-76
2023/05/15 05:36:39;;;;;;;2.28;0.40;;;20.40;99.90;;;;;;5092173;28;20197;-77
2023/05/15 05:39:10;;;;;;;0.82;0.40;;;20.40;99.90;;;;;;5092596;28;20259;-77
2023/05/15 05:41:41;;;;;;;0.93;0.30;;;20.50;99.90;;;;;;5092752;28;20223;-78
2023/05/15 05:44:13;;;;;;;0.73;0.30;;;20.50;99.90;;;;;;5092368;28;20677;-77
2023/05/15 05:46:44;;;;;;;1.48;0.47;;;20.50;99.90;;;;;;5092300;28;20654;-77
2023/05/15 05:49:17;;;;;;;2.78;0.60;;;20.50;99.90;;;;;;5093110;28;20662;-78
2023/05/15 05:51:49;;;;;;;1.75;0.40;;;20.60;99.90;;;;;;5112665;28;20748;-78
2023/05/15 05:54:20;;;;;;;1.00;0.50;;;20.60;99.90;;;;;;5112410;28;20209;-77
2023/05/15 05:56:51;;;;;;;1.38;0.60;;;20.60;99.90;;;;;;5111956;28;20198;-76
2023/05/15 05:59:22;;;;;;;1.85;0.50;;;20.70;99.90;;;;;;5112555;28;20194;-76
2023/05/15 06:01:53;;;;;;;1.48;0.35;;;20.70;99.90;;;;;;5113171;28;20219;-77
2023/05/15 06:04:26;;;;;;;2.88;0.70;;;20.80;99.90;;;;;;5114923;28;20585;-77
2023/05/15 06:06:59;;;;;;;2.30;0.50;;;20.90;99.90;;;;;;5111452;28;20201;-78
2023/05/15 06:09:30;;;;;;;1.95;0.57;;;20.90;99.90;;;;;;5114163;28;20199;-77
2023/05/15 06:12:03;;;;;;;2.40;0.50;;;21.00;99.90;;;;;;5111852;28;20205;-77
2023/05/15 06:14:34;;;;;;;1.88;0.70;;;21.00;99.90;;;;;;5113145;28;20282;-77
2023/05/15 06:17:06;;;;;;;1.08;0.45;;;21.10;99.90;;;;;;5113234;28;20820;-77
2023/05/15 06:19:39;;;;;;;2.33;0.60;;;21.10;99.90;;;;;;5111850;28;20514;-77
2023/05/15 06:22:10;;;;;;;1.95;0.60;;;21.10;99.90;;;;;;5113105;28;20761;-78
2023/05/15 06:24:41;;;;;;;1.63;0.70;;;21.10;99.90;;;;;;5113300;28;20209;-78
2023/05/15 06:27:12;;;;;;;3.70;0.70;;;21.00;99.90;;;;;;5112089;28;20202;-77
2023/05/15 06:29:43;;;;;;;1.40;0.50;;;21.00;99.90;;;;;;5112437;28;20201;-77
2023/05/15 06:32:14;;;;;;;1.27;0.50;;;20.90;99.90;;;;;;5097554;28;20540;-76
2023/05/15 06:34:49;;;;;;;1.15;0.50;;;20.70;99.90;;;;;;5092012;28;20206;-76
2023/05/15 06:37:20;;;;;;;1.08;0.40;;;20.60;99.90;;;;;;5091763;28;20676;-77
2023/05/15 06:39:51;;;;;;;1.02;0.47;;;20.50;99.90;;;;;;5096200;28;20195;-77
2023/05/15 06:42:22;;;;;;;1.45;0.40;;;20.30;99.90;;;;;;5110397;28;20222;-76
2023/05/15 06:44:55;;;;;;;1.83;0.40;;;20.20;99.90;;;;;;5114540;28;20262;-76
2023/05/15 06:47:26;;;;;;;0.73;0.40;;;20.10;99.90;;;;;;5113247;28;20206;-77
2023/05/15 06:50:01;;;;;;;1.55;0.50;;;20.00;99.90;;;;;;5099899;28;20203;-76
2023/05/15 06:52:32;;;;;;;0.80;0.30;;;19.90;99.90;;;;;;5094999;28;20199;-77
2023/05/15 06:55:03;;;;;;;0.65;0.40;;;19.80;99.90;;;;;;5094454;28;20187;-78
2023/05/15 06:57:35;;;;;;;1.45;0.40;;;19.70;99.90;;;;;;5093417;28;20199;-79
2023/05/15 07:00:07;;;;;;;3.05;0.40;;;19.70;99.90;;;;;;5092191;28;20203;-78
2023/05/15 07:02:38;;;;;;;0.75;0.30;;;19.60;99.90;;;;;;5075265;28;20261;-78
2023/05/15 07:05:12;;;;;;;0.88;0.40;;;19.60;99.90;;;;;;5092410;28;20203;-78
2023/05/15 07:07:43;;;;;;;2.10;0.52;;;19.50;99.90;;;;;;5094682;28;20198;-78
2023/05/15 07:10:14;;;;;;;1.35;0.70;;;19.50;99.90;;;;;;5091889;28;20209;-79
2023/05/15 07:12:45;;;;;;;2.75;0.90;;;19.40;99.90;;;;;;5087246;28;20199;-78
2023/05/15 07:15:16;;;;;;;1.63;0.82;;;19.40;99.90;;;;;;5091000;28;20195;-78
2023/05/15 07:17:48;;;;;;;1.85;0.93;;;19.30;99.90;;;;;;5092010;28;20211;-78
2023/05/15 07:20:21;;;;;;;3.08;0.98;;;19.20;99.90;;;;;;5085831;28;20671;-78
2023/05/15 07:22:52;;;;;;;2.55;1.65;;;19.20;99.90;;;;;;5071954;28;20230;-77
2023/05/15 07:25:23;;;;;;;2.50;1.42;;;19.10;99.90;;;;;;5077931;28;20676;-78
2023/05/15 07:27:55;;;;;;;2.13;1.00;;;19.10;99.90;;;;;;5090295;28;20203;-78
2023/05/15 07:30:26;;;;;;;1.45;0.80;;;19.10;99.90;;;;;;5091875;28;20206;-78
2023/05/15 07:32:57;;;;;;;1.63;1.00;;;19.10;99.90;;;;;;5096947;28;20221;-78
2023/05/15 07:35:31;;;;;;;2.00;1.00;;;19.00;99.90;;;;;;5089404;28;20197;-78
2023/05/15 07:38:03;;;;;;;3.72;1.17;;;19.00;99.90;;;;;;5076199;28;20308;-77
2023/05/15 07:40:34;;;;;;;2.63;1.00;;;19.00;99.90;;;;;;5090832;28;20237;-77
2023/05/15 07:43:05;;;;;;;2.28;0.90;;;18.90;99.90;;;;;;5085592;28;20230;-78
2023/05/15 07:45:36;;;;;;;1.42;0.90;;;18.90;99.90;;;;;;5075850;28;20279;-78
2023/05/15 07:48:17;;;;;;;2.03;0.85;;;18.90;99.90;;;;;;5091930;28;20195;-76
2023/05/15 07:50:52;;;;;;;1.10;0.70;;;18.80;99.90;;;;;;5083927;28;20191;-79
2023/05/15 07:53:23;;;;;;;0.65;0.50;;;18.80;99.90;;;;;;5089727;28;20653;-79
2023/05/15 07:55:54;;;;;;;1.15;0.82;;;18.80;99.90;;;;;;5086483;28;20199;-78
2023/05/15 07:58:26;;;;;;;1.17;0.65;;;18.80;99.90;;;;;;5090355;28;20202;-78
2023/05/15 08:00:57;;;;;;;1.10;0.70;;;18.70;99.90;;;;;;5079787;28;20682;-79
2023/05/15 08:03:28;;;;;;;0.88;0.70;;;18.70;99.90;;;;;;5090447;28;20226;-80
2023/05/15 08:06:01;;;;;;;1.35;0.85;;;18.70;99.90;;;;;;5086175;28;20215;-79
2023/05/15 08:08:32;;;;;;;1.55;0.73;;;18.60;99.90;;;;;;5089963;28;20772;-79
2023/05/15 08:11:04;;;;;;;0.90;0.77;;;18.60;99.90;;;;;;5083929;28;20218;-79
2023/05/15 08:13:36;;;;;;;1.08;0.73;;;18.60;99.90;;;;;;5086780;28;20199;-77
2023/05/15 08:16:07;;;;;;;1.50;0.70;;;18.60;99.90;;;;;;5086070;28;20195;-78
2023/05/15 08:18:38;;;;;;;2.08;0.60;;;18.60;99.90;;;;;;5083496;28;20540;-77
2023/05/15 08:21:12;;;;;;;0.82;0.70;;;18.60;99.90;;;;;;5087039;28;20709;-78
2023/05/15 08:23:43;;;;;;;2.08;0.70;;;18.60;99.90;;;;;;5077696;28;20226;-77
2023/05/15 08:26:14;;;;;;;1.00;0.90;;;18.50;99.90;;;;;;5069436;28;20205;-78
2023/05/15 08:28:45;;;;;;;4.32;1.70;;;18.50;99.90;;;;;;5084039;28;20200;-78
2023/05/15 08:31:17;;;;;;;3.65;1.30;;;18.50;99.90;;;;;;5073420;28;20196;-77
2023/05/15 08:33:48;;;;;;;1.77;1.20;;;18.50;99.90;;;;;;5070391;28;20260;-77
2023/05/15 08:36:21;;;;;;;3.13;1.90;;;18.40;99.90;;;;;;5093307;28;20706;-78
2023/05/15 08:38:52;;;;;;;3.65;2.60;;;18.40;99.90;;;;;;5072500;28;20191;-78
2023/05/15 08:41:33;;;;;;;4.25;1.50;;;18.40;99.90;;;;;;5086305;28;20203;-77
2023/05/15 08:44:06;;;;;;;3.25;1.33;;;18.40;99.90;;;;;;5069655;28;20347;-77
2023/05/15 08:46:38;;;;;;;1.55;1.30;;;18.40;99.90;;;;;;5079854;28;20205;-78
2023/05/15 08:49:13;;;;;;;2.03;1.23;;;18.40;99.90;;;;;;5075765;28;20314;-77
2023/05/15 08:51:49;;;;;;;1.20;1.00;;;18.30;99.90;;;;;;5066485;28;20195;-78
2023/05/15 08:54:21;;;;;;;3.05;0.88;;;18.30;99.90;;;;;;5065570;28;20199;-77
2023/05/15 08:56:52;;;;;;;2.00;1.00;;;18.30;99.90;;;;;;5073426;28;20353;-78
2023/05/15 08:59:23;;;;;;;2.45;1.02;;;18.30;99.90;;;;;;5067857;28;20282;-78
2023/05/15 09:01:55;;;;;;;1.15;1.02;;;18.30;99.90;;;;;;5067449;28;20189;-78
2023/05/15 09:04:26;;;;;;;1.58;1.02;;;18.30;99.90;;;;;;5074097;28;20223;-77
2023/05/15 09:07:02;;;;;;;1.65;1.13;;;18.20;99.90;;;;;;5072953;28;20212;-77
2023/05/15 09:09:35;;;;;;;3.05;2.10;;;18.20;99.90;;;;;;5092199;28;20199;-78
2023/05/15 09:12:08;;;;;;;6.68;2.60;;;18.20;99.90;;;;;;5092511;28;20257;-77
2023/05/15 09:14:39;;;;;;;3.20;1.60;;;18.20;99.90;;;;;;5077718;28;20868;-77
2023/05/15 09:17:13;;;;;;;4.00;2.65;;;18.20;99.90;;;;;;5080030;28;20197;-77
2023/05/15 09:19:47;;;;;;;3.00;2.50;;;18.10;99.90;;;;;;5066835;28;20274;-79
2023/05/15 09:22:22;;;;;;;4.55;2.55;;;18.10;99.90;;;;;;5087143;28;20219;-78
2023/05/15 09:24:56;;;;;;;4.18;2.80;;;18.10;99.90;;;;;;5061163;28;20306;-79
2023/05/15 09:27:28;;;;;;;4.72;3.78;;;18.00;99.90;;;;;;5073364;28;20199;-78
2023/05/15 09:30:09;;;;;;;4.82;3.67;;;18.10;99.90;;;;;;5069153;28;20192;-79
2023/05/15 09:32:41;;;;;;;2.92;2.28;;;18.00;99.90;;;;;;5067812;28;20201;-78
2023/05/15 09:35:37;;;;;;;6.25;4.35;;;18.00;99.90;;;;;;5086278;28;20191;-78
2023/05/15 09:38:11;;;;;;;6.43;5.32;;;18.00;99.90;;;;;;5082256;28;20199;-79
2023/05/15 09:40:43;;;;;;;14.30;12.25;;;17.90;99.90;;;;;;5071582;28;20199;-78
2023/05/15 09:43:14;;;;;;;3.63;3.08;;;17.90;99.90;;;;;;5075327;28;20242;-78
2023/05/15 09:45:48;;;;;;;4.95;3.47;;;17.80;99.90;;;;;;5092076;28;20203;-77
2023/05/15 09:48:19;;;;;;;12.35;10.48;;;17.80;99.90;;;;;;5076058;28;20191;-77
2023/05/15 09:50:52;;;;;;;6.25;5.18;;;17.80;99.90;;;;;;5084280;28;20203;-79
2023/05/15 09:53:25;;;;;;;5.40;3.30;;;17.80;99.90;;;;;;5089566;28;20199;-78
2023/05/15 09:55:57;;;;;;;4.32;2.65;;;17.80;99.90;;;;;;5091720;28;20199;-78
2023/05/15 09:58:28;;;;;;;4.53;2.60;;;17.80;99.90;;;;;;5083501;28;20200;-78
2023/05/15 10:01:02;;;;;;;4.82;2.90;;;17.80;99.90;;;;;;5088869;28;20192;-78
2023/05/15 10:03:34;;;;;;;4.40;3.13;;;17.90;99.90;;;;;;5091625;28;20260;-78
2023/05/15 10:06:05;;;;;;;5.68;3.08;;;17.80;99.90;;;;;;5080222;28;20191;-79
2023/05/15 10:08:42;;;;;;;5.68;3.08;;;17.80;99.90;;;;;;5058277;28;20216;-78
2023/05/15 10:11:13;;;;;;;5.20;2.83;;;17.80;99.90;;;;;;5050148;28;20192;-82
2023/05/15 10:13:44;;;;;;;6.80;3.67;;;17.80;99.90;;;;;;5051929;28;20199;-82
2023/05/15 10:16:17;;;;;;;10.25;7.45;;;17.70;99.90;;;;;;5085868;28;20199;-80
2023/05/15 10:18:51;;;;;;;9.98;5.72;;;17.70;99.90;;;;;;5090806;28;20198;-82
2023/05/15 10:21:23;;;;;;;5.00;3.53;;;17.70;99.90;;;;;;5082171;28;20226;-82
2023/05/15 10:24:02;;;;;;;6.18;2.60;;;17.70;99.90;;;;;;5071040;28;20208;-82
2023/05/15 10:26:38;;;;;;;5.28;2.30;;;17.60;99.90;;;;;;5076263;28;20554;-82
2023/05/15 10:29:11;;;;;;;4.55;2.75;;;17.70;99.90;;;;;;5070411;28;20195;-82
2023/05/15 10:31:43;;;;;;;3.80;2.70;;;17.60;99.90;;;;;;5069753;28;20202;-82
2023/05/15 10:34:14;;;;;;;5.68;3.67;;;17.60;99.90;;;;;;5090956;28;20290;-82
2023/05/15 10:36:46;;;;;;;6.75;4.68;;;17.60;99.90;;;;;;5052691;28;20205;-82
2023/05/15 10:39:20;;;;;;;5.93;4.15;;;17.60;99.90;;;;;;5060668;28;20196;-82
2023/05/15 10:41:54;;;;;;;5.93;3.50;;;17.50;99.90;;;;;;5069611;28;20199;-83
2023/05/15 10:44:26;;;;;;;3.72;2.75;;;17.50;99.90;;;;;;5070857;28;20216;-84
2023/05/15 10:46:58;;;;;;;3.53;2.13;;;17.40;99.90;;;;;;5070925;28;20184;-83
2023/05/15 10:49:29;;;;;;;2.80;1.60;;;17.40;99.90;;;;;;5070500;28;20184;-82
2023/05/15 10:52:02;;;;;;;3.13;1.83;;;17.40;99.90;;;;;;5081867;28;20191;-82
2023/05/15 10:54:36;;;;;;;2.42;1.63;;;17.30;99.90;;;;;;5090434;28;20187;-83
2023/05/15 10:57:08;;;;;;;4.53;1.65;;;17.30;99.90;;;;;;5073121;28;20291;-83
2023/05/15 10:59:40;;;;;;;6.45;2.30;;;17.30;99.90;;;;;;5070495;28;20188;-83
2023/05/15 11:02:29;;;;;;;4.20;2.13;;;17.30;99.90;;;;;;5076904;28;20234;-82
2023/05/15 11:05:01;;;;;;;6.07;2.22;;;17.20;99.90;;;;;;5061185;28;20308;-84
2023/05/15 11:07:34;;;;;;;5.25;2.20;;;17.30;99.90;;;;;;5090514;28;20218;-82
2023/05/15 11:10:41;;;;;;;2.83;2.10;;;17.30;99.90;;;;;;5085574;28;20199;-82
2023/05/15 11:13:12;;;;;;;3.78;2.28;;;17.40;99.90;;;;;;5057926;28;20192;-81
2023/05/15 11:15:48;;;;;;;5.07;2.30;;;17.30;99.90;;;;;;5089613;28;20236;-82
2023/05/15 11:18:19;;;;;;;2.47;1.70;;;17.30;99.90;;;;;;5051171;28;20211;-84
2023/05/15 11:21:11;;;;;;;2.13;1.75;;;17.40;99.90;;;;;;5082317;28;20314;-85
2023/05/15 11:23:43;;;;;;;3.17;2.53;;;17.30;99.90;;;;;;5089321;28;20227;-83
2023/05/15 11:26:16;;;;;;;5.63;2.60;;;17.30;99.90;;;;;;5056396;28;20310;-84
2023/05/15 11:28:47;;;;;;;3.47;2.10;;;17.20;99.90;;;;;;5051448;28;20188;-83
2023/05/15 11:31:18;;;;;;;4.60;2.00;;;17.30;99.90;;;;;;5069650;28;20267;-83
2023/05/15 11:33:53;;;;;;;3.65;2.08;;;17.20;99.90;;;;;;5072285;28;20213;-83
2023/05/15 11:36:27;;;;;;;2.45;1.60;;;17.20;99.90;;;;;;5073513;28;20201;-83
2023/05/15 11:38:59;;;;;;;3.92;2.00;;;17.20;99.90;;;;;;5051566;28;20208;-83
2023/05/15 11:41:34;;;;;;;4.43;2.30;;;17.20;99.90;;;;;;5050553;28;20201;-82
2023/05/15 11:44:06;;;;;;;3.03;2.30;;;17.20;99.90;;;;;;5055569;28;20229;-83
2023/05/15 11:46:40;;;;;;;4.72;2.60;;;17.20;99.90;;;;;;5086034;28;20200;-83
2023/05/15 11:49:12;;;;;;;3.53;2.58;;;17.20;99.90;;;;;;5070543;28;20192;-82
2023/05/15 11:51:44;;;;;;;5.15;2.10;;;17.10;99.90;;;;;;5078609;28;20186;-82
2023/05/15 11:54:15;;;;;;;4.28;2.20;;;17.10;99.90;;;;;;5072602;28;20200;-82
2023/05/15 11:56:48;;;;;;;3.28;2.30;;;17.00;99.90;;;;;;5072240;28;20213;-83
2023/05/15 11:59:19;;;;;;;2.95;2.20;;;17.00;99.90;;;;;;5074598;28;20203;-83
2023/05/15 12:01:51;;;;;;;4.13;3.03;;;16.90;99.90;;;;;;5077145;28;20198;-82
2023/05/15 12:04:22;;;;;;;3.58;3.00;;;16.90;99.90;;;;;;5081204;28;20216;-83
2023/05/15 12:06:53;;;;;;;3.78;2.95;;;16.90;99.90;;;;;;5055045;28;20528;-81
2023/05/15 12:09:26;;;;;;;4.10;2.60;;;16.90;99.90;;;;;;5054254;28;20330;-82
2023/05/15 12:11:59;;;;;;;2.72;2.35;;;16.90;99.90;;;;;;5066880;28;20192;-83
2023/05/15 12:14:33;;;;;;;3.28;2.05;;;16.90;99.90;;;;;;5094559;28;20195;-82
2023/05/15 12:17:05;;;;;;;4.28;2.10;;;16.90;99.90;;;;;;5079739;28;20194;-83
2023/05/15 12:19:37;;;;;;;3.92;2.22;;;16.90;99.90;;;;;;5076412;28;20192;-82
2023/05/15 12:22:09;;;;;;;2.35;2.00;;;16.90;99.90;;;;;;5094731;28;20238;-81
2023/05/15 12:24:41;;;;;;;3.67;2.90;;;16.80;99.90;;;;;;5055091;28;20224;-82
2023/05/15 12:27:17;;;;;;;4.65;2.53;;;16.80;99.90;;;;;;5066230;28;20192;-82
2023/05/15 12:29:51;;;;;;;4.65;2.45;;;16.80;99.90;;;;;;5072383;28;20200;-83
2023/05/15 12:32:22;;;;;;;2.95;2.33;;;16.90;99.90;;;;;;5075142;28;20208;-81
2023/05/15 12:34:54;;;;;;;2.45;2.25;;;16.80;99.90;;;;;;5072495;28;20197;-81
2023/05/15 12:37:28;;;;;;;5.00;2.40;;;16.80;99.90;;;;;;5074282;28;20208;-82
2023/05/15 12:40:01;;;;;;;3.22;2.42;;;16.80;99.90;;;;;;5093639;28;20192;-81
2023/05/15 12:42:40;;;;;;;3.45;2.00;;;16.80;99.90;;;;;;5073333;28;20200;-80
2023/05/15 12:45:21;;;;;;;4.47;2.22;;;16.80;99.90;;;;;;5073768;28;20220;-79
2023/05/15 12:47:53;;;;;;;2.67;1.95;;;16.80;99.90;;;;;;5072424;28;20208;-82
2023/05/15 12:50:25;;;;;;;2.20;1.60;;;16.80;99.90;;;;;;5070540;28;20199;-80
2023/05/15 12:52:57;;;;;;;3.00;1.92;;;16.80;99.90;;;;;;5072890;28;20628;-81
2023/05/15 12:55:31;;;;;;;2.08;1.73;;;16.80;99.90;;;;;;5085687;28;20202;-80
2023/05/15 12:58:05;;;;;;;2.67;1.60;;;16.80;99.90;;;;;;5071702;28;20273;-81
2023/05/15 13:00:38;;;;;;;1.92;1.70;;;16.80;99.90;;;;;;5072722;28;20199;-81
2023/05/15 13:03:12;;;;;;;3.25;2.00;;;16.80;99.90;;;;;;5070850;28;20576;-80
2023/05/15 13:05:46;;;;;;;4.38;2.30;;;16.80;99.90;;;;;;5070688;28;20220;-81
2023/05/15 13:08:19;;;;;;;3.40;2.38;;;16.70;99.90;;;;;;5067048;28;20219;-81
2023/05/15 13:10:58;;;;;;;2.78;1.80;;;16.70;99.90;;;;;;5073064;28;20643;-81
2023/05/15 13:13:44;;;;;;;3.28;1.88;;;16.70;99.90;;;;;;5079063;28;20199;-82
2023/05/15 13:16:28;;;;;;;2.00;1.80;;;16.70;99.90;;;;;;5073043;28;20329;-82